Řízení letového provozu České republiky
Letiste: LKKB Aktualizace: 29.07.2016 21:08:16  UTC
 METAR LKKB 29.07. 21:00 ...
METAR LKKB 292100Z 18003KT CAVOK 20/15 Q1014=
 TAF LKKB 29.07. 17:00 ...
TAF LKKB 291700Z 2918/3018 23006KT CAVOK      PROB30 TEMPO 3002/3006 SHRA BKN030      TEMPO 3010/3016 20012KT SHRA SCT040=